createdAt,value
2018-03-08T00:01:27.718Z,85.00
2018-03-08T00:04:02.201Z,83.80
2018-03-08T00:06:37.224Z,84.30
2018-03-08T00:09:12.193Z,84.30
2018-03-08T00:11:49.133Z,84.90
2018-03-08T00:14:23.571Z,84.80
2018-03-08T00:16:58.381Z,85.60
2018-03-08T00:19:32.947Z,83.70
2018-03-08T00:22:07.638Z,84.20
2018-03-08T00:24:42.033Z,84.20
2018-03-08T00:27:16.569Z,85.60
2018-03-08T00:29:52.546Z,85.10
2018-03-08T00:32:27.095Z,85.10
2018-03-08T00:35:01.653Z,84.80
2018-03-08T00:37:36.528Z,84.90
2018-03-08T00:40:11.636Z,84.10
2018-03-08T00:42:46.280Z,84.10
2018-03-08T00:45:20.606Z,85.20
2018-03-08T00:47:55.121Z,84.10
2018-03-08T00:50:29.572Z,85.80
2018-03-08T00:53:04.268Z,85.70
2018-03-08T00:55:38.937Z,85.20
2018-03-08T00:58:13.729Z,85.50
2018-03-08T01:00:48.177Z,85.60
2018-03-08T01:03:22.791Z,86.40
2018-03-08T01:05:57.207Z,85.20
2018-03-08T01:08:32.062Z,86.10
2018-03-08T01:11:06.524Z,85.70
2018-03-08T01:13:41.092Z,85.20
2018-03-08T01:16:15.501Z,87.30
2018-03-08T01:18:50.540Z,86.30
2018-03-08T01:21:24.869Z,85.70
2018-03-08T01:23:59.580Z,85.70
2018-03-08T01:26:34.024Z,85.70
2018-03-08T01:29:09.650Z,85.30
2018-03-08T01:31:44.064Z,85.30
2018-03-08T01:34:18.693Z,84.90
2018-03-08T01:36:53.132Z,85.00
2018-03-08T01:39:27.738Z,84.00
2018-03-08T01:42:02.076Z,84.50
2018-03-08T01:44:36.497Z,85.30
2018-03-08T01:47:10.839Z,86.20
2018-03-08T01:49:46.033Z,85.60
2018-03-08T01:52:20.485Z,85.60
2018-03-08T01:54:55.095Z,86.40
2018-03-08T01:57:29.709Z,86.30
2018-03-08T02:00:05.197Z,85.40
2018-03-08T02:02:39.616Z,85.40
2018-03-08T02:05:14.279Z,87.00
2018-03-08T02:07:48.958Z,85.30
2018-03-08T02:10:23.654Z,85.20
2018-03-08T02:12:58.039Z,86.20
2018-03-08T02:15:32.596Z,86.10
2018-03-08T02:18:07.047Z,86.30
2018-03-08T02:20:41.613Z,86.10
2018-03-08T02:23:15.895Z,85.30
2018-03-08T02:25:50.733Z,86.00
2018-03-08T02:28:25.201Z,85.40
2018-03-08T02:30:59.727Z,85.30
2018-03-08T02:33:34.191Z,85.70
2018-03-08T02:36:08.617Z,86.30
2018-03-08T02:38:43.073Z,87.30
2018-03-08T02:41:17.831Z,86.80
2018-03-08T02:43:53.215Z,85.00
2018-03-08T02:46:28.304Z,85.00
2018-03-08T02:49:03.616Z,84.70
2018-03-08T02:51:38.374Z,85.60
2018-03-08T02:54:13.599Z,85.50
2018-03-08T02:56:48.250Z,85.50
2018-03-08T02:59:22.705Z,85.10
2018-03-08T03:01:57.270Z,84.40
2018-03-08T03:04:31.708Z,84.80
2018-03-08T03:07:06.335Z,85.30
2018-03-08T03:09:40.769Z,86.20
2018-03-08T03:12:15.374Z,85.50
2018-03-08T03:14:49.785Z,85.50
2018-03-08T03:17:24.451Z,85.50
2018-03-08T03:19:58.765Z,85.60
2018-03-08T03:22:33.577Z,85.60
2018-03-08T03:25:07.994Z,86.50
2018-03-08T03:27:42.817Z,86.60
2018-03-08T03:30:17.474Z,86.60
2018-03-08T03:32:52.034Z,87.30
2018-03-08T03:35:26.428Z,86.80
2018-03-08T03:38:01.637Z,86.50
2018-03-08T03:40:36.025Z,86.40
2018-03-08T03:43:10.684Z,86.40
2018-03-08T03:45:45.585Z,87.30
2018-03-08T03:48:20.344Z,86.90
2018-03-08T03:50:54.684Z,87.20
2018-03-08T03:53:29.270Z,87.80
2018-03-08T03:56:03.681Z,88.20
2018-03-08T03:58:38.229Z,87.00
2018-03-08T04:01:13.445Z,88.00
2018-03-08T04:03:48.136Z,87.90
2018-03-08T04:06:22.606Z,87.20
2018-03-08T04:08:57.860Z,88.30
2018-03-08T04:11:32.881Z,88.70
2018-03-08T04:14:09.280Z,88.60
2018-03-08T04:16:43.748Z,88.50
2018-03-08T04:19:18.304Z,87.10
2018-03-08T04:21:53.268Z,88.00
2018-03-08T04:24:27.964Z,87.60
2018-03-08T04:27:02.426Z,87.90
2018-03-08T04:29:37.429Z,89.10
2018-03-08T04:32:11.972Z,89.10
2018-03-08T04:34:48.389Z,89.90
2018-03-08T04:37:22.822Z,89.80
2018-03-08T04:39:57.362Z,89.50
2018-03-08T04:42:31.857Z,90.00
2018-03-08T04:45:06.424Z,90.10
2018-03-08T04:47:40.960Z,90.30
2018-03-08T04:50:16.471Z,90.10
2018-03-08T04:52:51.035Z,90.20
2018-03-08T04:55:25.725Z,90.30
2018-03-08T04:58:00.268Z,90.00
2018-03-08T05:00:34.956Z,89.20
2018-03-08T05:03:10.308Z,89.40
2018-03-08T05:05:44.865Z,89.50
2018-03-08T05:08:19.372Z,89.70
2018-03-08T05:10:54.087Z,90.10
2018-03-08T05:13:28.477Z,90.30
2018-03-08T05:16:03.143Z,90.40
2018-03-08T05:18:38.105Z,90.80
2018-03-08T05:21:13.639Z,90.80
2018-03-08T05:23:48.008Z,90.80
2018-03-08T05:26:22.462Z,91.10
2018-03-08T05:28:56.933Z,91.10
2018-03-08T05:31:31.714Z,91.10
2018-03-08T05:34:07.514Z,90.90
2018-03-08T05:36:42.189Z,90.90
2018-03-08T05:39:16.650Z,90.50
2018-03-08T05:41:51.237Z,90.30
2018-03-08T05:44:25.684Z,90.30
2018-03-08T05:47:00.281Z,90.10
2018-03-08T05:49:34.700Z,90.00
2018-03-08T05:52:10.005Z,90.20
2018-03-08T05:54:45.168Z,89.80
2018-03-08T05:57:19.917Z,89.80
2018-03-08T05:59:54.367Z,89.50
2018-03-08T06:02:28.962Z,89.50
2018-03-08T06:05:03.478Z,89.70
2018-03-08T06:07:38.217Z,89.40
2018-03-08T06:10:12.631Z,89.60
2018-03-08T06:12:47.256Z,89.70
2018-03-08T06:15:21.858Z,89.60
2018-03-08T06:17:57.125Z,88.90
2018-03-08T06:20:32.334Z,88.60
2018-03-08T06:23:06.983Z,88.60
2018-03-08T06:25:42.261Z,88.50
2018-03-08T06:28:16.821Z,88.50
2018-03-08T06:30:51.195Z,88.70
2018-03-08T06:33:25.907Z,89.20
2018-03-08T06:36:00.307Z,89.30
2018-03-08T06:38:34.941Z,89.00
2018-03-08T06:41:10.270Z,88.70
2018-03-08T06:43:44.812Z,88.70
2018-03-08T06:46:19.322Z,89.20
2018-03-08T06:48:53.860Z,89.20
2018-03-08T06:51:29.187Z,89.10
2018-03-08T06:54:03.700Z,89.00
2018-03-08T06:56:38.100Z,89.50
2018-03-08T06:59:12.693Z,89.40
2018-03-08T07:01:47.904Z,90.10
2018-03-08T07:04:23.567Z,90.30
2018-03-08T07:06:57.936Z,90.30
2018-03-08T07:09:32.709Z,90.40
2018-03-08T07:12:07.225Z,90.40
2018-03-08T07:14:41.786Z,90.50
2018-03-08T07:17:16.153Z,90.60
2018-03-08T07:19:50.593Z,90.80
2018-03-08T07:22:25.174Z,90.80
2018-03-08T07:24:59.841Z,90.80
2018-03-08T07:27:35.189Z,90.90
2018-03-08T07:30:10.115Z,90.70
2018-03-08T07:32:44.548Z,90.90
2018-03-08T07:35:19.092Z,90.90
2018-03-08T07:37:53.400Z,90.60
2018-03-08T07:40:28.004Z,90.50
2018-03-08T07:43:03.156Z,89.80
2018-03-08T07:45:37.676Z,89.80
2018-03-08T07:48:12.311Z,89.30
2018-03-08T07:50:47.532Z,89.60
2018-03-08T07:53:21.844Z,89.60
2018-03-08T07:55:56.581Z,89.60
2018-03-08T07:58:31.307Z,89.50
2018-03-08T08:01:05.956Z,89.10
2018-03-08T08:03:40.532Z,89.20
2018-03-08T08:09:22.800Z,88.90
2018-03-08T08:11:58.129Z,89.00
2018-03-08T08:14:32.548Z,89.30
2018-03-08T08:17:07.168Z,89.00
2018-03-08T08:19:42.408Z,89.10
2018-03-08T08:22:17.044Z,89.20
2018-03-08T08:24:51.521Z,89.20
2018-03-08T08:27:26.280Z,89.30
2018-03-08T08:30:00.792Z,89.30
2018-03-08T08:32:35.348Z,88.90
2018-03-08T08:35:09.744Z,88.50
2018-03-08T08:37:44.800Z,88.50
2018-03-08T08:40:19.228Z,88.40
2018-03-08T08:42:53.846Z,88.30
2018-03-08T08:45:28.293Z,88.00
2018-03-08T08:48:02.883Z,87.50
2018-03-08T08:50:37.350Z,87.50
2018-03-08T08:53:11.924Z,87.40
2018-03-08T08:55:46.349Z,87.10
2018-03-08T08:58:20.974Z,87.30
2018-03-08T09:00:56.010Z,86.80
2018-03-08T09:03:30.833Z,86.40
2018-03-08T09:06:05.113Z,86.10
2018-03-08T09:08:39.877Z,86.30
2018-03-08T09:11:14.316Z,86.20
2018-03-08T09:13:48.939Z,86.60
2018-03-08T09:16:23.372Z,86.70
2018-03-08T09:18:58.582Z,87.20
2018-03-08T09:21:33.173Z,86.90
2018-03-08T09:24:07.561Z,86.60
2018-03-08T09:26:41.876Z,86.60
2018-03-08T09:29:16.318Z,86.40
2018-03-08T09:31:50.813Z,86.30
2018-03-08T09:34:25.416Z,86.10
2018-03-08T09:37:00.611Z,86.20
2018-03-08T09:39:35.280Z,86.10
2018-03-08T09:42:09.698Z,86.00
2018-03-08T09:44:44.333Z,86.10
2018-03-08T09:47:19.673Z,86.20
2018-03-08T09:49:54.402Z,86.10
2018-03-08T09:52:28.787Z,86.00
2018-03-08T09:55:03.416Z,85.60
2018-03-08T09:57:37.733Z,85.50
2018-03-08T10:00:12.130Z,85.90
2018-03-08T10:02:46.428Z,85.50
2018-03-08T10:05:20.951Z,85.60
2018-03-08T10:07:55.374Z,85.30
2018-03-08T10:10:29.992Z,85.50
2018-03-08T10:13:04.837Z,85.20
2018-03-08T10:15:39.642Z,85.20
2018-03-08T10:18:13.992Z,84.70
2018-03-08T10:20:48.697Z,83.80
2018-03-08T10:23:23.193Z,82.60
2018-03-08T10:25:57.834Z,81.30
2018-03-08T10:28:32.988Z,82.20
2018-03-08T10:31:07.703Z,80.70
2018-03-08T10:33:42.213Z,80.10
2018-03-08T10:36:16.946Z,79.60
2018-03-08T10:38:52.084Z,78.60
2018-03-08T10:44:01.544Z,77.60
2018-03-08T10:46:36.268Z,77.00
2018-03-08T10:49:11.299Z,76.00
2018-03-08T10:51:45.925Z,75.60
2018-03-08T10:54:20.421Z,75.20
2018-03-08T10:56:55.176Z,75.60
2018-03-08T10:59:29.600Z,75.20
2018-03-08T11:05:09.782Z,74.80
2018-03-08T11:07:44.403Z,76.00
2018-03-08T11:10:18.821Z,75.10
2018-03-08T11:12:53.453Z,75.20
2018-03-08T11:15:27.949Z,74.00
2018-03-08T11:18:02.488Z,73.20
2018-03-08T11:20:37.034Z,72.70
2018-03-08T11:23:11.749Z,73.70
2018-03-08T11:25:47.076Z,72.30
2018-03-08T11:28:21.764Z,72.30
2018-03-08T11:30:56.324Z,72.10
2018-03-08T11:33:30.884Z,72.00
2018-03-08T11:36:05.248Z,72.40
2018-03-08T11:38:39.705Z,72.30
2018-03-08T11:41:14.936Z,73.40
2018-03-08T11:43:49.463Z,73.50
2018-03-08T11:46:23.871Z,72.80
2018-03-08T11:49:00.354Z,72.40
2018-03-08T11:51:33.233Z,71.20
2018-03-08T11:54:08.481Z,70.60
2018-03-08T11:56:43.937Z,70.60
2018-03-08T11:59:18.461Z,70.60
2018-03-08T12:01:53.784Z,69.10
2018-03-08T12:04:29.093Z,69.10
2018-03-08T12:07:03.460Z,68.80
2018-03-08T12:09:37.887Z,69.60
2018-03-08T12:12:12.271Z,69.90
2018-03-08T12:14:46.813Z,68.90
2018-03-08T12:17:21.776Z,67.50
2018-03-08T12:19:56.502Z,67.60
2018-03-08T12:22:31.063Z,66.80
2018-03-08T12:25:05.544Z,66.70
2018-03-08T12:27:39.984Z,66.20
2018-03-08T12:30:14.798Z,66.80
2018-03-08T12:32:49.197Z,66.90
2018-03-08T12:35:23.973Z,65.90
2018-03-08T12:37:58.533Z,66.10
2018-03-08T12:40:33.282Z,66.10
2018-03-08T12:43:08.516Z,67.40
2018-03-08T12:45:43.352Z,65.70
2018-03-08T12:48:18.689Z,65.30
2018-03-08T12:50:53.576Z,65.20
2018-03-08T12:53:28.036Z,66.50
2018-03-08T12:56:02.698Z,65.70
2018-03-08T12:58:37.609Z,65.50
2018-03-08T13:01:12.333Z,66.20
2018-03-08T13:03:46.839Z,65.60
2018-03-08T13:06:21.501Z,65.00
2018-03-08T13:08:56.011Z,64.30
2018-03-08T13:11:30.568Z,64.20
2018-03-08T13:14:05.456Z,63.90
2018-03-08T13:16:40.257Z,64.20
2018-03-08T13:19:14.507Z,63.70
2018-03-08T13:21:49.742Z,62.90
2018-03-08T13:24:24.242Z,62.80
2018-03-08T13:26:58.777Z,61.70
2018-03-08T13:29:33.639Z,62.30
2018-03-08T13:32:09.073Z,60.50
2018-03-08T13:34:43.528Z,60.30
2018-03-08T13:37:18.053Z,60.80
2018-03-08T13:39:52.456Z,60.60
2018-03-08T13:42:27.782Z,60.50
2018-03-08T13:45:02.177Z,60.40
2018-03-08T13:47:36.825Z,60.50
2018-03-08T13:50:11.229Z,58.60
2018-03-08T13:52:46.073Z,58.30
2018-03-08T13:55:20.573Z,58.10
2018-03-08T13:57:55.317Z,57.90
2018-03-08T14:00:30.652Z,58.80
2018-03-08T14:03:05.385Z,58.80
2018-03-08T14:05:40.531Z,58.00
2018-03-08T14:08:15.052Z,57.50
2018-03-08T14:10:50.390Z,58.00
2018-03-08T14:13:24.917Z,58.00
2018-03-08T14:15:59.357Z,58.50
2018-03-08T14:18:34.573Z,59.00
2018-03-08T14:21:08.933Z,58.80
2018-03-08T14:23:44.541Z,57.70
2018-03-08T14:26:18.996Z,57.20
2018-03-08T14:28:53.593Z,56.40
2018-03-08T14:31:28.820Z,58.30
2018-03-08T14:34:03.452Z,58.20
2018-03-08T14:36:37.880Z,58.80
2018-03-08T14:39:13.133Z,59.20
2018-03-08T14:41:47.520Z,59.20
2018-03-08T14:44:21.966Z,59.70
2018-03-08T14:46:56.516Z,59.10
2018-03-08T14:49:32.511Z,59.20
2018-03-08T14:52:07.004Z,59.20
2018-03-08T14:54:41.390Z,59.10
2018-03-08T14:57:15.733Z,59.30
2018-03-08T14:59:50.321Z,59.30
2018-03-08T15:02:24.881Z,58.30
2018-03-08T15:04:59.595Z,57.20
2018-03-08T15:07:34.173Z,57.30
2018-03-08T15:10:08.830Z,57.60
2018-03-08T15:12:43.433Z,58.00
2018-03-08T15:15:17.982Z,58.10
2018-03-08T15:17:52.456Z,58.60
2018-03-08T15:20:26.917Z,58.60
2018-03-08T15:23:01.309Z,59.00
2018-03-08T15:25:35.769Z,58.60
2018-03-08T15:28:10.345Z,58.50
2018-03-08T15:30:45.626Z,58.90
2018-03-08T15:33:20.966Z,58.60
2018-03-08T15:35:56.331Z,58.60
2018-03-08T15:38:31.446Z,58.90
2018-03-08T15:41:06.178Z,58.80
2018-03-08T15:43:40.825Z,59.00
2018-03-08T15:46:15.231Z,59.30
2018-03-08T15:48:49.821Z,59.00
2018-03-08T15:51:24.656Z,59.30
2018-03-08T15:54:00.545Z,59.30
2018-03-08T15:56:35.175Z,59.50
2018-03-08T15:59:09.628Z,60.10
2018-03-08T16:01:44.209Z,60.10
2018-03-08T16:04:18.665Z,60.80
2018-03-08T16:10:41.116Z,60.60
2018-03-08T16:13:15.629Z,60.70
2018-03-08T16:15:50.014Z,60.70
2018-03-08T16:18:24.717Z,61.30
2018-03-08T16:20:59.965Z,62.10
2018-03-08T16:23:34.540Z,63.00
2018-03-08T16:26:09.044Z,64.20
2018-03-08T16:28:43.483Z,65.00
2018-03-08T16:31:18.033Z,65.80
2018-03-08T16:33:52.592Z,66.10
2018-03-08T16:36:26.884Z,67.40
2018-03-08T16:39:01.483Z,68.20
2018-03-08T16:41:36.093Z,69.10
2018-03-08T16:44:11.533Z,70.50
2018-03-08T16:46:45.944Z,70.40
2018-03-08T16:49:20.356Z,71.30
2018-03-08T16:51:54.625Z,72.30
2018-03-08T16:54:29.135Z,73.70
2018-03-08T16:57:03.668Z,73.90
2018-03-08T16:59:38.414Z,74.70
2018-03-08T17:02:12.963Z,75.40
2018-03-08T17:04:48.195Z,76.60
2018-03-08T17:07:23.367Z,77.20
2018-03-08T17:09:57.969Z,77.00
2018-03-08T17:12:33.017Z,78.00
2018-03-08T17:15:07.499Z,77.50
2018-03-08T17:17:42.051Z,78.70
2018-03-08T17:20:16.599Z,79.10
2018-03-08T17:22:51.927Z,81.00
2018-03-08T17:25:26.677Z,81.70
2018-03-08T17:28:02.539Z,81.20
2018-03-08T17:30:37.152Z,81.10
2018-03-08T17:33:11.487Z,82.00
2018-03-08T17:35:45.921Z,82.50
2018-03-08T17:38:20.212Z,82.60
2018-03-08T17:40:55.405Z,83.30
2018-03-08T17:43:29.786Z,83.30
2018-03-08T17:46:05.720Z,84.90
2018-03-08T17:48:40.076Z,84.80
2018-03-08T17:51:14.583Z,84.80
2018-03-08T17:53:49.690Z,85.20
2018-03-08T17:56:24.220Z,85.20
2018-03-08T17:58:58.813Z,85.70
2018-03-08T18:01:33.468Z,85.50
2018-03-08T18:04:07.712Z,85.70
2018-03-08T18:06:42.924Z,85.90
2018-03-08T18:09:17.222Z,86.40
2018-03-08T18:11:51.812Z,86.80
2018-03-08T18:14:26.632Z,86.90
2018-03-08T18:17:01.235Z,86.80
2018-03-08T18:19:35.879Z,87.10
2018-03-08T18:22:10.271Z,87.30
2018-03-08T18:24:44.709Z,87.30
2018-03-08T18:27:19.299Z,87.70
2018-03-08T18:29:53.734Z,87.70
2018-03-08T18:32:28.256Z,88.00
2018-03-08T18:35:02.501Z,88.30
2018-03-08T18:37:37.008Z,88.60
2018-03-08T18:40:11.346Z,88.60
2018-03-08T18:42:45.845Z,88.70
2018-03-08T18:45:20.978Z,88.70
2018-03-08T18:47:55.734Z,88.90
2018-03-08T18:50:30.207Z,89.00
2018-03-08T18:53:04.759Z,89.20
2018-03-08T18:55:39.299Z,89.40
2018-03-08T18:58:26.709Z,89.20
2018-03-08T19:01:01.009Z,89.30
2018-03-08T19:03:35.544Z,88.90
2018-03-08T19:06:09.864Z,88.80
2018-03-08T19:08:44.389Z,88.60
2018-03-08T19:11:19.012Z,88.40
2018-03-08T19:13:54.084Z,88.20
2018-03-08T19:16:28.609Z,88.20
2018-03-08T19:19:03.060Z,88.40
2018-03-08T19:21:37.503Z,88.30
2018-03-08T19:24:11.935Z,88.10
2018-03-08T19:26:46.584Z,88.10
2018-03-08T19:29:21.393Z,88.10
2018-03-08T19:31:56.734Z,88.00
2018-03-08T19:34:31.257Z,87.90
2018-03-08T19:37:06.058Z,87.90
2018-03-08T19:39:40.710Z,87.60
2018-03-08T19:42:14.993Z,87.80
2018-03-08T19:44:49.491Z,88.20
2018-03-08T19:47:23.844Z,87.50
2018-03-08T19:49:58.373Z,88.10
2018-03-08T19:52:33.135Z,88.00
2018-03-08T19:55:08.265Z,88.10
2018-03-08T19:57:42.660Z,88.10
2018-03-08T20:00:17.329Z,88.20
2018-03-08T20:02:51.688Z,86.80
2018-03-08T20:05:26.964Z,86.60
2018-03-08T20:08:01.315Z,86.50
2018-03-08T20:10:35.812Z,86.20
2018-03-08T20:13:10.217Z,86.40
2018-03-08T20:15:45.124Z,86.40
2018-03-08T20:18:19.554Z,86.00
2018-03-08T20:20:53.998Z,85.80
2018-03-08T20:23:28.512Z,86.00
2018-03-08T20:26:03.026Z,86.90
2018-03-08T20:28:37.340Z,86.40
2018-03-08T20:31:11.732Z,85.80
2018-03-08T20:33:47.134Z,85.80
2018-03-08T20:36:21.964Z,85.20
2018-03-08T20:38:56.506Z,85.30
2018-03-08T20:41:31.208Z,85.60
2018-03-08T20:44:05.632Z,85.60
2018-03-08T20:46:40.264Z,84.60
2018-03-08T20:49:14.612Z,85.50
2018-03-08T20:51:49.307Z,84.60
2018-03-08T20:54:23.721Z,84.00
2018-03-08T20:56:58.347Z,83.80
2018-03-08T20:59:32.777Z,83.00
2018-03-08T21:02:07.596Z,82.10
2018-03-08T21:04:42.050Z,82.60
2018-03-08T21:07:16.708Z,82.40
2018-03-08T21:09:51.153Z,82.40
2018-03-08T21:12:25.521Z,82.70
2018-03-08T21:15:00.120Z,82.30
2018-03-08T21:17:34.753Z,82.00
2018-03-08T21:20:09.202Z,81.30
2018-03-08T21:22:43.784Z,81.60
2018-03-08T21:25:18.188Z,81.70
2018-03-08T21:27:53.664Z,81.80
2018-03-08T21:30:28.099Z,81.80
2018-03-08T21:33:02.708Z,82.20
2018-03-08T21:35:38.333Z,82.20
2018-03-08T21:38:12.975Z,82.10
2018-03-08T21:40:48.882Z,81.70
2018-03-08T21:43:23.470Z,81.80
2018-03-08T21:45:58.131Z,81.70
2018-03-08T21:48:32.705Z,82.30
2018-03-08T21:51:07.124Z,82.50
2018-03-08T21:53:41.750Z,82.60
2018-03-08T21:56:16.263Z,82.70
2018-03-08T21:58:50.797Z,82.60
2018-03-08T22:01:25.736Z,83.00
2018-03-08T22:04:00.475Z,83.40
2018-03-08T22:06:34.949Z,83.90
2018-03-08T22:09:09.524Z,84.50
2018-03-08T22:11:44.055Z,84.40
2018-03-08T22:14:18.528Z,84.50
2018-03-08T22:16:53.891Z,83.60
2018-03-08T22:19:28.413Z,83.60
2018-03-08T22:22:03.485Z,83.80
2018-03-08T22:24:37.929Z,83.70
2018-03-08T22:27:13.041Z,83.80
2018-03-08T22:29:47.540Z,84.00
2018-03-08T22:32:22.885Z,84.10
2018-03-08T22:34:57.396Z,84.20
2018-03-08T22:37:32.563Z,84.10
2018-03-08T22:40:07.888Z,84.10
2018-03-08T22:42:42.972Z,84.10
2018-03-08T22:45:17.536Z,84.70
2018-03-08T22:47:51.853Z,84.70
2018-03-08T22:50:27.210Z,85.80
2018-03-08T22:53:01.677Z,85.30
2018-03-08T22:55:36.453Z,85.80
2018-03-08T22:58:10.957Z,86.00
2018-03-08T23:00:45.497Z,86.30
2018-03-08T23:03:26.149Z,85.90
2018-03-08T23:06:00.684Z,85.90
2018-03-08T23:08:35.300Z,85.90
2018-03-08T23:11:10.145Z,86.00
2018-03-08T23:13:44.689Z,86.30
2018-03-08T23:16:19.382Z,86.00
2018-03-08T23:18:53.885Z,86.10
2018-03-08T23:21:29.671Z,86.10
2018-03-08T23:24:04.657Z,86.00
2018-03-08T23:26:39.737Z,86.20
2018-03-08T23:29:14.183Z,86.60
2018-03-08T23:31:49.394Z,86.70
2018-03-08T23:34:23.839Z,86.70
2018-03-08T23:36:59.263Z,86.20
2018-03-08T23:39:33.732Z,86.20
2018-03-08T23:42:08.291Z,87.20
2018-03-08T23:44:42.785Z,86.70
2018-03-08T23:47:17.869Z,86.70
2018-03-08T23:49:52.250Z,86.70
2018-03-08T23:52:26.603Z,86.90
2018-03-08T23:55:01.004Z,86.80
2018-03-08T23:57:35.664Z,86.90
